Terminal Aerodrome Forecast
Issued by NWS

Home | Current Version | Previous Version | Text Only | Print | Product List | Glossary On
Versions: 1 2 3 4 5 6 7 8 9 10 11 12 13 14 15 16 17 18 19 20 21 22 23 24 25 26 27 28 29 30
000
FTUS45 KREV 211542 AAA
TAFRNO
TAF AMD
KRNO 211542Z 2116/2212 02006KT P6SM -SHRA SCT020 BKN050
     FM211700 04008KT P6SM SCT045 BKN080
     FM211900 07008KT P6SM -RA SCT030 OVC060
     FM220200 10008KT P6SM VCSH SCT035 BKN060
     FM220700 30007KT P6SM VCSH SCT030 BKN050=

USA.gov is the U.S. government's official web portal to all federal, state and local government web resources and services.